Time;durP1;ratioP1;P1;durP2;ratioP2;P2;SDS_P1;SDS_P2;PMS_P1;PMS_P2;Temp;Humidity;BMP_temperature;BMP_pressure;BME280_temperature;BME280_humidity;BME280_pressure;Samples;Min_cycle;Max_cycle;Signal;HPM_P1;HPM_P2
2022/11/18 00:01:12;;;;;;;3.05;1.30;;;;;;;;;;8359087;28;20716;-63
2022/11/18 00:05:13;;;;;;;2.28;1.60;;;;;;;;;;8361296;28;20487;-62
2022/11/18 00:09:13;;;;;;;3.20;1.63;;;;;;;;;;8346578;28;20055;-62
2022/11/18 00:17:32;;;;;;;6.38;1.80;;;;;;;;;;8362878;28;20471;-62
2022/11/18 00:21:32;;;;;;;5.43;1.67;;;;;;;;;;8365104;28;20028;-64
2022/11/18 00:25:32;;;;;;;3.90;1.83;;;;;;;;;;8366100;28;20028;-63
2022/11/18 00:29:33;;;;;;;3.65;1.38;;;;;;;;;;8365856;28;20025;-62
2022/11/18 00:33:33;;;;;;;5.28;1.50;;;;;;;;;;8332031;28;20041;-62
2022/11/18 00:37:33;;;;;;;3.70;1.50;;;;;;;;;;8364685;28;20035;-63
2022/11/18 00:45:52;;;;;;;2.50;1.60;;;;;;;;;;8351526;28;20622;-62
2022/11/18 00:49:52;;;;;;;2.47;1.60;;;;;;;;;;8327242;28;20016;-63
2022/11/18 00:53:53;;;;;;;5.18;2.15;;;;;;;;;;8325820;28;20095;-63
2022/11/18 00:57:53;;;;;;;3.55;1.80;;;;;;;;;;8325964;28;20033;-62
2022/11/18 01:01:54;;;;;;;5.13;1.90;;;;;;;;;;8328745;28;20037;-63
2022/11/18 01:05:57;;;;;;;5.43;2.17;;;;;;;;;;8316260;28;20033;-63
2022/11/18 01:09:57;;;;;;;5.97;2.23;;;;;;;;;;8331280;28;20117;-62
2022/11/18 01:13:57;;;;;;;5.90;2.25;;;;;;;;;;8330781;28;20044;-63
2022/11/18 01:17:57;;;;;;;3.13;2.13;;;;;;;;;;8328271;28;20729;-62
2022/11/18 01:22:01;;;;;;;5.43;2.30;;;;;;;;;;8326377;28;20743;-62
2022/11/18 01:26:06;;;;;;;3.85;2.13;;;;;;;;;;8326635;28;20037;-62
2022/11/18 01:30:06;;;;;;;8.80;2.60;;;;;;;;;;8324929;28;20136;-63
2022/11/18 01:34:06;;;;;;;5.70;2.45;;;;;;;;;;8354768;28;20032;-62
2022/11/18 01:38:09;;;;;;;7.43;2.22;;;;;;;;;;8355181;28;20028;-62
2022/11/18 01:42:16;;;;;;;9.27;3.15;;;;;;;;;;8358689;28;20051;-62
2022/11/18 01:46:16;;;;;;;14.52;3.38;;;;;;;;;;8354800;28;20127;-62
2022/11/18 01:50:18;;;;;;;5.13;2.10;;;;;;;;;;8353976;28;20082;-62
2022/11/18 01:54:20;;;;;;;7.10;3.15;;;;;;;;;;8356288;28;20387;-62
2022/11/18 01:58:26;;;;;;;14.30;3.28;;;;;;;;;;8354069;28;20482;-62
2022/11/18 02:02:26;;;;;;;10.10;2.67;;;;;;;;;;8328543;28;20144;-63
2022/11/18 02:06:26;;;;;;;6.10;3.08;;;;;;;;;;8307228;28;20057;-63
2022/11/18 02:10:26;;;;;;;10.23;2.75;;;;;;;;;;8309042;28;20090;-62
2022/11/18 02:14:28;;;;;;;8.70;3.65;;;;;;;;;;8308091;28;20033;-62
2022/11/18 02:18:40;;;;;;;6.60;2.95;;;;;;;;;;8344650;28;20358;-62
2022/11/18 02:22:52;;;;;;;7.30;3.20;;;;;;;;;;8349214;28;20500;-62
2022/11/18 02:27:18;;;;;;;7.90;3.63;;;;;;;;;;8349408;28;20035;-63
2022/11/18 02:31:18;;;;;;;10.95;3.90;;;;;;;;;;8350290;28;20036;-62
2022/11/18 02:35:26;;;;;;;6.07;3.28;;;;;;;;;;8349686;28;20020;-62
2022/11/18 02:39:35;;;;;;;6.55;3.10;;;;;;;;;;8331299;28;20059;-62
2022/11/18 02:44:01;;;;;;;6.18;3.17;;;;;;;;;;8348521;28;20098;-62
2022/11/18 02:48:05;;;;;;;7.63;3.15;;;;;;;;;;8311021;28;20032;-62
2022/11/18 02:52:07;;;;;;;8.00;3.53;;;;;;;;;;8349816;28;20044;-62
2022/11/18 02:56:08;;;;;;;8.65;3.17;;;;;;;;;;8347318;28;20012;-63
2022/11/18 03:00:08;;;;;;;8.40;3.10;;;;;;;;;;8349518;28;20357;-62
2022/11/18 03:04:08;;;;;;;5.72;2.75;;;;;;;;;;8349204;28;20678;-63
2022/11/18 03:08:11;;;;;;;6.65;3.30;;;;;;;;;;8349968;28;20118;-62
2022/11/18 03:12:17;;;;;;;6.18;3.15;;;;;;;;;;8347841;28;20163;-67
2022/11/18 03:16:22;;;;;;;8.90;3.35;;;;;;;;;;8348995;28;20112;-63
2022/11/18 03:20:28;;;;;;;9.75;3.65;;;;;;;;;;8347551;28;20055;-63
2022/11/18 03:24:31;;;;;;;12.23;3.53;;;;;;;;;;8349230;28;20252;-63
2022/11/18 03:28:43;;;;;;;11.60;3.37;;;;;;;;;;8346439;28;20087;-63
2022/11/18 03:32:46;;;;;;;6.43;3.17;;;;;;;;;;8346314;28;21278;-63
2022/11/18 03:36:49;;;;;;;8.27;3.53;;;;;;;;;;8348408;28;20484;-63
2022/11/18 03:40:53;;;;;;;11.95;3.67;;;;;;;;;;8351904;28;21600;-64
2022/11/18 03:44:55;;;;;;;5.30;3.60;;;;;;;;;;8353352;28;20024;-63
2022/11/18 03:48:57;;;;;;;8.50;3.80;;;;;;;;;;8353471;28;21137;-63
2022/11/18 03:52:59;;;;;;;6.07;3.00;;;;;;;;;;8355894;28;20107;-63
2022/11/18 03:57:04;;;;;;;9.18;3.08;;;;;;;;;;8356569;28;20020;-63
2022/11/18 04:01:09;;;;;;;9.05;3.08;;;;;;;;;;8355228;28;20255;-62
2022/11/18 04:05:11;;;;;;;5.45;2.80;;;;;;;;;;8354167;28;20025;-63
2022/11/18 04:09:17;;;;;;;7.75;3.50;;;;;;;;;;8356897;28;20021;-62
2022/11/18 04:13:20;;;;;;;9.20;3.28;;;;;;;;;;8354911;28;20028;-63
2022/11/18 04:17:21;;;;;;;6.03;3.03;;;;;;;;;;8354597;28;20041;-64
2022/11/18 04:21:21;;;;;;;11.05;3.15;;;;;;;;;;8352748;28;20017;-62
2022/11/18 04:25:23;;;;;;;6.03;3.40;;;;;;;;;;8353850;28;20029;-62
2022/11/18 04:29:23;;;;;;;7.82;3.67;;;;;;;;;;8354496;28;20020;-63
2022/11/18 04:33:23;;;;;;;7.55;4.70;;;;;;;;;;8352887;28;20544;-63
2022/11/18 04:37:24;;;;;;;12.85;3.97;;;;;;;;;;8355835;28;20017;-62
2022/11/18 04:41:54;;;;;;;11.20;3.63;;;;;;;;;;8353220;28;20738;-63
2022/11/18 04:45:44;;;;;;;6.68;2.83;;;;;;;;;;8353275;28;20356;-62
2022/11/18 04:49:44;;;;;;;6.10;2.47;;;;;;;;;;8352299;28;20043;-63
2022/11/18 04:53:45;;;;;;;4.72;1.88;;;;;;;;;;8354021;28;20128;-63
2022/11/18 04:57:45;;;;;;;5.70;2.10;;;;;;;;;;8352881;28;20440;-63
2022/11/18 05:01:45;;;;;;;3.42;1.55;;;;;;;;;;8350158;28;20536;-63
2022/11/18 05:05:45;;;;;;;2.20;1.40;;;;;;;;;;8354317;28;20879;-62
2022/11/18 05:09:48;;;;;;;2.65;1.88;;;;;;;;;;8353187;28;20817;-62
2022/11/18 05:13:49;;;;;;;3.42;1.40;;;;;;;;;;8355337;28;20013;-63
2022/11/18 05:17:49;;;;;;;1.48;1.00;;;;;;;;;;8351576;28;20076;-63
2022/11/18 05:21:49;;;;;;;1.02;0.70;;;;;;;;;;8351577;28;20029;-62
2022/11/18 05:25:50;;;;;;;0.75;0.63;;;;;;;;;;8352556;28;20031;-63
2022/11/18 05:29:50;;;;;;;0.50;0.50;;;;;;;;;;8351269;28;20043;-63
2022/11/18 05:33:50;;;;;;;0.82;0.65;;;;;;;;;;8352564;28;20477;-62
2022/11/18 05:37:50;;;;;;;3.75;0.70;;;;;;;;;;8351161;28;20031;-63
2022/11/18 05:46:09;;;;;;;0.95;0.63;;;;;;;;;;8348052;28;20044;-63
2022/11/18 05:50:12;;;;;;;1.33;0.50;;;;;;;;;;8347619;28;20016;-62
2022/11/18 05:54:13;;;;;;;0.70;0.70;;;;;;;;;;8352049;28;20838;-63
2022/11/18 05:58:13;;;;;;;1.52;0.60;;;;;;;;;;8349623;28;20032;-64
2022/11/18 06:02:16;;;;;;;0.50;0.50;;;;;;;;;;8350767;28;20041;-62
2022/11/18 06:06:19;;;;;;;2.17;0.50;;;;;;;;;;8350707;28;20078;-62
2022/11/18 06:10:23;;;;;;;2.20;0.60;;;;;;;;;;8351119;28;20028;-62
2022/11/18 06:14:25;;;;;;;0.40;0.40;;;;;;;;;;8348238;28;20020;-62
2022/11/18 06:18:27;;;;;;;0.90;0.60;;;;;;;;;;8348139;28;20474;-62
2022/11/18 06:22:27;;;;;;;1.35;0.50;;;;;;;;;;8347933;28;20042;-62
2022/11/18 06:26:28;;;;;;;4.88;0.68;;;;;;;;;;8351349;28;20064;-62
2022/11/18 06:30:28;;;;;;;0.85;0.43;;;;;;;;;;8348191;28;20064;-63
2022/11/18 06:34:28;;;;;;;0.40;0.40;;;;;;;;;;8346425;28;20024;-63
2022/11/18 06:38:29;;;;;;;0.50;0.50;;;;;;;;;;8350671;28;20020;-63
2022/11/18 06:46:57;;;;;;;0.40;0.40;;;;;;;;;;8349521;28;20035;-62
2022/11/18 06:50:57;;;;;;;3.78;0.57;;;;;;;;;;8351449;28;20095;-62
2022/11/18 06:54:57;;;;;;;0.50;0.50;;;;;;;;;;8349457;28;20028;-64
2022/11/18 06:58:58;;;;;;;0.70;0.70;;;;;;;;;;8349172;28;20028;-62
2022/11/18 07:02:58;;;;;;;0.40;0.40;;;;;;;;;;8348100;28;20040;-62
2022/11/18 07:06:58;;;;;;;1.02;0.57;;;;;;;;;;8348510;28;20036;-61
2022/11/18 07:10:58;;;;;;;2.17;0.60;;;;;;;;;;8347991;28;20072;-62
2022/11/18 07:14:58;;;;;;;1.65;0.60;;;;;;;;;;8347894;28;20021;-62
2022/11/18 07:18:58;;;;;;;2.33;0.57;;;;;;;;;;8347294;28;20170;-63
2022/11/18 07:22:59;;;;;;;1.67;0.60;;;;;;;;;;8347801;28;20027;-63
2022/11/18 07:26:59;;;;;;;1.33;1.00;;;;;;;;;;8347906;28;20043;-62
2022/11/18 07:31:03;;;;;;;3.70;0.60;;;;;;;;;;8345724;28;20033;-62
2022/11/18 07:35:03;;;;;;;0.90;0.55;;;;;;;;;;8347578;28;20487;-62
2022/11/18 07:39:04;;;;;;;1.17;0.63;;;;;;;;;;8348815;28;20127;-62
2022/11/18 07:43:06;;;;;;;0.80;0.80;;;;;;;;;;8347401;28;20514;-62
2022/11/18 07:47:06;;;;;;;1.50;0.98;;;;;;;;;;8346672;28;20494;-63
2022/11/18 07:51:06;;;;;;;2.15;1.15;;;;;;;;;;8347922;28;20198;-62
2022/11/18 07:55:07;;;;;;;1.92;1.23;;;;;;;;;;8346943;28;20024;-62
2022/11/18 07:59:07;;;;;;;3.28;1.13;;;;;;;;;;8348181;28;20091;-62
2022/11/18 08:03:07;;;;;;;2.20;1.40;;;;;;;;;;8345088;28;20664;-63
2022/11/18 08:07:08;;;;;;;3.55;1.55;;;;;;;;;;8347658;28;20028;-62
2022/11/18 08:11:11;;;;;;;2.22;1.50;;;;;;;;;;8347332;28;20020;-62
2022/11/18 08:15:11;;;;;;;1.60;1.50;;;;;;;;;;8341907;28;20117;-62
2022/11/18 08:19:12;;;;;;;3.40;1.60;;;;;;;;;;8345065;28;20024;-62
2022/11/18 08:23:12;;;;;;;2.80;1.40;;;;;;;;;;8343090;28;20024;-63
2022/11/18 08:27:13;;;;;;;3.95;1.50;;;;;;;;;;8347737;28;20028;-63
2022/11/18 08:31:15;;;;;;;2.75;1.88;;;;;;;;;;8350436;28;20493;-62
2022/11/18 08:35:16;;;;;;;2.10;1.40;;;;;;;;;;8345778;28;20127;-62
2022/11/18 08:39:16;;;;;;;2.35;1.58;;;;;;;;;;8345247;28;20024;-64
2022/11/18 08:43:16;;;;;;;1.80;1.70;;;;;;;;;;8350385;28;20032;-63
2022/11/18 08:47:16;;;;;;;2.35;1.70;;;;;;;;;;8346805;28;20037;-63
2022/11/18 08:51:16;;;;;;;2.42;1.60;;;;;;;;;;8333631;28;20021;-62
2022/11/18 08:55:17;;;;;;;2.20;1.38;;;;;;;;;;8351056;28;20016;-62
2022/11/18 08:59:17;;;;;;;3.20;1.60;;;;;;;;;;8344955;28;20749;-63
2022/11/18 09:03:17;;;;;;;3.67;1.50;;;;;;;;;;8341474;28;20033;-63
2022/11/18 09:07:18;;;;;;;3.30;1.70;;;;;;;;;;8348261;28;20032;-62
2022/11/18 09:11:20;;;;;;;2.90;1.45;;;;;;;;;;8349675;28;20262;-67
2022/11/18 09:15:22;;;;;;;2.97;1.30;;;;;;;;;;8333185;28;20016;-63
2022/11/18 09:19:23;;;;;;;4.82;1.40;;;;;;;;;;8350160;28;20048;-62
2022/11/18 09:23:23;;;;;;;2.03;1.30;;;;;;;;;;8349461;28;20027;-62
2022/11/18 09:27:23;;;;;;;2.03;1.30;;;;;;;;;;8350035;28;20020;-62
2022/11/18 09:31:24;;;;;;;2.22;1.20;;;;;;;;;;8347779;28;20037;-63
2022/11/18 09:35:24;;;;;;;2.13;1.40;;;;;;;;;;8345646;28;20017;-62
2022/11/18 09:39:24;;;;;;;2.22;1.42;;;;;;;;;;8348644;28;20266;-62
2022/11/18 09:43:28;;;;;;;3.63;1.60;;;;;;;;;;8350129;28;20040;-62
2022/11/18 09:47:29;;;;;;;1.77;1.30;;;;;;;;;;8347060;28;20127;-63
2022/11/18 09:51:33;;;;;;;2.05;1.20;;;;;;;;;;8347841;28;20036;-62
2022/11/18 09:55:37;;;;;;;2.28;1.65;;;;;;;;;;8352334;28;20036;-63
2022/11/18 09:59:37;;;;;;;;;;;;;;;;;;8345060;28;20594;-63
2022/11/18 10:03:38;;;;;;;3.33;1.67;;;;;;;;;;8348694;28;19962;-62
2022/11/18 10:07:58;;;;;;;3.25;1.48;;;;;;;;;;8345529;28;20051;-62
2022/11/18 10:11:58;;;;;;;2.97;1.42;;;;;;;;;;8350719;28;20378;-66
2022/11/18 10:15:58;;;;;;;3.13;1.38;;;;;;;;;;8348119;28;20060;-62
2022/11/18 10:20:17;;;;;;;2.00;1.38;;;;;;;;;;8347361;28;20131;-62
2022/11/18 10:24:19;;;;;;;5.90;1.65;;;;;;;;;;8350076;28;20032;-62
2022/11/18 10:28:19;;;;;;;2.85;1.38;;;;;;;;;;8349806;28;20029;-64
2022/11/18 10:32:19;;;;;;;1.20;1.10;;;;;;;;;;8350346;28;20063;-63
2022/11/18 10:36:22;;;;;;;1.65;1.30;;;;;;;;;;8335842;28;20016;-62
2022/11/18 10:40:24;;;;;;;2.30;1.27;;;;;;;;;;8350751;28;20489;-62
2022/11/18 10:44:27;;;;;;;3.53;1.20;;;;;;;;;;8355446;28;20036;-62
2022/11/18 10:48:27;;;;;;;2.00;1.20;;;;;;;;;;8352021;28;20135;-62
2022/11/18 10:52:29;;;;;;;3.30;1.40;;;;;;;;;;8352666;28;20700;-63
2022/11/18 10:56:42;;;;;;;2.05;1.17;;;;;;;;;;8350882;28;20059;-64
2022/11/18 11:00:46;;;;;;;1.75;1.15;;;;;;;;;;8353644;28;20939;-63
2022/11/18 11:04:47;;;;;;;2.10;1.00;;;;;;;;;;8348168;28;20111;-62
2022/11/18 11:08:49;;;;;;;2.42;1.10;;;;;;;;;;8337030;28;20640;-62
2022/11/18 11:12:55;;;;;;;3.15;1.20;;;;;;;;;;8350448;28;20110;-62
2022/11/18 11:17:01;;;;;;;4.18;1.20;;;;;;;;;;8349281;28;20568;-62
2022/11/18 11:21:01;;;;;;;3.15;1.17;;;;;;;;;;8350178;28;20020;-62
2022/11/18 11:25:01;;;;;;;2.42;1.08;;;;;;;;;;8345196;28;20810;-62
2022/11/18 11:29:24;;;;;;;1.08;0.80;;;;;;;;;;8350946;28;20052;-63
2022/11/18 11:33:29;;;;;;;1.48;1.00;;;;;;;;;;8353014;28;20032;-62
2022/11/18 11:37:32;;;;;;;3.15;1.20;;;;;;;;;;8356385;28;20147;-63
2022/11/18 11:41:52;;;;;;;3.63;1.20;;;;;;;;;;8350907;28;20036;-62
2022/11/18 11:46:16;;;;;;;3.92;0.98;;;;;;;;;;8346211;28;20037;-62
2022/11/18 11:50:16;;;;;;;;;;;;;;;;;;8350047;28;20804;-62
2022/11/18 11:54:37;;;;;;;5.32;1.13;;;;;;;;;;8352566;28;19920;-62
2022/11/18 11:58:47;;;;;;;6.05;1.00;;;;;;;;;;8349384;28;20077;-63
2022/11/18 12:03:04;;;;;;;1.58;1.08;;;;;;;;;;8357440;28;20036;-62
2022/11/18 12:07:05;;;;;;;3.78;0.90;;;;;;;;;;8355743;28;20024;-62
2022/11/18 12:11:14;;;;;;;2.95;0.90;;;;;;;;;;8357738;28;20477;-62
2022/11/18 12:15:17;;;;;;;3.25;1.13;;;;;;;;;;8355901;28;20522;-62
2022/11/18 12:19:18;;;;;;;3.03;0.97;;;;;;;;;;8360430;28;20094;-63
2022/11/18 12:23:26;;;;;;;1.75;0.88;;;;;;;;;;8359786;28;20114;-62
2022/11/18 12:27:29;;;;;;;2.42;1.10;;;;;;;;;;8360065;28;20039;-62
2022/11/18 12:31:31;;;;;;;0.93;0.93;;;;;;;;;;8360154;28;20044;-62
2022/11/18 12:35:31;;;;;;;2.85;0.98;;;;;;;;;;8360507;28;20297;-62
2022/11/18 12:39:34;;;;;;;8.05;3.30;;;;;;;;;;8359955;28;20032;-62
2022/11/18 12:43:45;;;;;;;4.10;2.83;;;;;;;;;;8358612;28;20079;-62
2022/11/18 12:47:45;;;;;;;4.35;1.55;;;;;;;;;;8357210;28;20405;-61
2022/11/18 12:51:46;;;;;;;3.00;1.63;;;;;;;;;;8358697;28;20070;-62
2022/11/18 12:55:46;;;;;;;4.75;0.90;;;;;;;;;;8356636;28;20028;-61
2022/11/18 12:59:47;;;;;;;2.37;0.87;;;;;;;;;;8356591;28;20025;-62
2022/11/18 13:03:47;;;;;;;3.55;1.15;;;;;;;;;;8358097;28;20283;-62
2022/11/18 13:12:14;;;;;;;3.00;1.10;;;;;;;;;;8357686;28;20034;-62
2022/11/18 13:20:41;;;;;;;3.55;1.10;;;;;;;;;;8355075;28;20035;-62
2022/11/18 13:24:45;;;;;;;2.88;1.20;;;;;;;;;;8347979;28;20037;-62
2022/11/18 13:28:45;;;;;;;;;;;;;;;;;;8337038;28;20100;-62
2022/11/18 13:32:46;;;;;;;3.67;1.25;;;;;;;;;;8356752;28;20450;-61
2022/11/18 13:36:47;;;;;;;2.25;1.02;;;;;;;;;;8354719;28;20492;-62
2022/11/18 13:41:03;;;;;;;2.47;1.17;;;;;;;;;;8357965;28;20048;-62
2022/11/18 13:45:04;;;;;;;2.25;1.00;;;;;;;;;;8356588;28;20044;-62
2022/11/18 13:49:05;;;;;;;4.07;1.10;;;;;;;;;;8360604;28;20032;-61
2022/11/18 13:53:08;;;;;;;3.80;0.90;;;;;;;;;;8362479;28;20466;-62
2022/11/18 13:57:19;;;;;;;5.90;1.20;;;;;;;;;;8356115;28;20024;-67
2022/11/18 14:01:24;;;;;;;5.10;1.00;;;;;;;;;;8360892;28;20124;-62
2022/11/18 14:05:24;;;;;;;4.70;1.40;;;;;;;;;;8360467;28;20024;-61
2022/11/18 14:09:24;;;;;;;2.88;0.98;;;;;;;;;;8355140;28;20034;-62
2022/11/18 14:13:31;;;;;;;3.10;1.08;;;;;;;;;;8358581;28;20592;-62
2022/11/18 14:17:31;;;;;;;2.63;1.20;;;;;;;;;;8350205;28;20045;-61
2022/11/18 14:21:33;;;;;;;4.57;1.30;;;;;;;;;;8353429;28;20087;-63
2022/11/18 14:25:34;;;;;;;3.70;1.27;;;;;;;;;;8355049;28;20555;-62
2022/11/18 14:29:35;;;;;;;2.50;1.63;;;;;;;;;;8354470;28;20035;-63
2022/11/18 14:33:36;;;;;;;4.50;1.10;;;;;;;;;;8354672;28;20028;-62
2022/11/18 14:37:36;;;;;;;3.35;1.00;;;;;;;;;;8358134;28;20032;-62
2022/11/18 14:41:48;;;;;;;3.80;1.20;;;;;;;;;;8359970;28;20330;-61
2022/11/18 14:45:49;;;;;;;4.05;1.30;;;;;;;;;;8359182;28;20068;-62
2022/11/18 14:49:49;;;;;;;4.88;1.00;;;;;;;;;;8355584;28;20035;-61
2022/11/18 14:53:49;;;;;;;8.50;1.00;;;;;;;;;;8359362;28;20020;-62
2022/11/18 14:57:50;;;;;;;7.00;1.35;;;;;;;;;;8354105;28;20282;-63
2022/11/18 15:01:50;;;;;;;2.53;1.27;;;;;;;;;;8346960;28;20680;-62
2022/11/18 15:05:50;;;;;;;6.38;1.10;;;;;;;;;;8353913;28;20881;-61
2022/11/18 15:09:50;;;;;;;4.03;1.20;;;;;;;;;;8349821;28;20107;-61
2022/11/18 15:13:51;;;;;;;4.25;1.40;;;;;;;;;;8349716;28;20027;-63
2022/11/18 15:17:51;;;;;;;2.63;1.30;;;;;;;;;;8349087;28;20083;-62
2022/11/18 15:21:51;;;;;;;1.80;1.17;;;;;;;;;;8349528;28;20021;-62
2022/11/18 15:25:51;;;;;;;3.13;1.40;;;;;;;;;;8351965;28;20035;-62
2022/11/18 15:29:51;;;;;;;2.25;1.38;;;;;;;;;;8353917;28;20031;-62
2022/11/18 15:33:52;;;;;;;4.10;1.30;;;;;;;;;;8354218;28;20036;-62
2022/11/18 15:37:52;;;;;;;4.77;1.40;;;;;;;;;;8358367;28;20020;-61
2022/11/18 15:41:52;;;;;;;2.78;1.65;;;;;;;;;;8356673;28;20310;-61
2022/11/18 15:45:56;;;;;;;5.45;1.50;;;;;;;;;;8355093;28;20132;-62
2022/11/18 15:49:57;;;;;;;2.83;1.10;;;;;;;;;;8355410;28;20447;-63
2022/11/18 15:53:57;;;;;;;4.40;1.38;;;;;;;;;;8350326;28;20130;-65
2022/11/18 15:57:57;;;;;;;2.92;1.10;;;;;;;;;;8349079;28;20024;-62
2022/11/18 16:01:57;;;;;;;3.20;1.00;;;;;;;;;;8351108;28;20060;-62
2022/11/18 16:05:57;;;;;;;4.68;1.45;;;;;;;;;;8344381;28;20016;-62
2022/11/18 16:14:17;;;;;;;5.07;1.42;;;;;;;;;;8346406;28;20028;-62
2022/11/18 16:18:18;;;;;;;3.95;1.10;;;;;;;;;;8344986;28;20044;-61
2022/11/18 16:22:18;;;;;;;3.53;1.20;;;;;;;;;;8352859;28;20021;-62
2022/11/18 16:26:18;;;;;;;2.88;1.30;;;;;;;;;;8350522;28;20784;-63
2022/11/18 16:34:37;;;;;;;5.78;1.48;;;;;;;;;;8352497;28;20778;-61
2022/11/18 16:38:37;;;;;;;6.43;1.33;;;;;;;;;;8354676;28;20024;-62
2022/11/18 16:42:37;;;;;;;1.55;0.90;;;;;;;;;;8349555;28;20104;-62
2022/11/18 16:46:39;;;;;;;5.85;1.17;;;;;;;;;;8351441;28;20042;-62
2022/11/18 16:50:39;;;;;;;1.77;0.93;;;;;;;;;;8357087;28;20107;-62
2022/11/18 16:54:39;;;;;;;3.35;1.00;;;;;;;;;;8361684;28;20450;-62
2022/11/18 16:58:40;;;;;;;3.80;1.20;;;;;;;;;;8357962;28;20616;-62
2022/11/18 17:02:40;;;;;;;1.58;1.10;;;;;;;;;;8358173;28;20194;-62
2022/11/18 17:06:40;;;;;;;3.63;1.60;;;;;;;;;;8356798;28;20131;-62
2022/11/18 17:10:40;;;;;;;3.40;1.20;;;;;;;;;;8353265;28;20117;-62
2022/11/18 17:14:41;;;;;;;3.10;1.13;;;;;;;;;;8355172;28;20106;-62
2022/11/18 17:18:41;;;;;;;1.73;0.95;;;;;;;;;;8355383;28;20043;-63
2022/11/18 17:22:41;;;;;;;1.13;0.90;;;;;;;;;;8351880;28;20027;-63
2022/11/18 17:26:42;;;;;;;3.30;1.20;;;;;;;;;;8340468;28;20036;-62
2022/11/18 17:30:42;;;;;;;2.00;1.10;;;;;;;;;;8358870;28;20131;-62
2022/11/18 17:34:42;;;;;;;3.55;1.00;;;;;;;;;;8353297;28;20036;-64
2022/11/18 17:38:44;;;;;;;1.10;0.90;;;;;;;;;;8352913;28;20139;-62
2022/11/18 17:42:44;;;;;;;2.50;1.10;;;;;;;;;;8353986;28;20024;-63
2022/11/18 17:46:45;;;;;;;3.20;0.93;;;;;;;;;;8351218;28;20817;-62
2022/11/18 17:50:46;;;;;;;1.25;0.80;;;;;;;;;;8355517;28;20030;-63
2022/11/18 17:54:46;;;;;;;5.28;1.25;;;;;;;;;;8355812;28;20047;-63
2022/11/18 17:58:48;;;;;;;4.40;1.88;;;;;;;;;;8354262;28;20524;-63
2022/11/18 18:02:48;;;;;;;2.58;1.13;;;;;;;;;;8354391;28;20826;-63
2022/11/18 18:06:50;;;;;;;2.35;1.00;;;;;;;;;;8352551;28;20024;-63
2022/11/18 18:10:50;;;;;;;3.95;1.30;;;;;;;;;;8351736;28;20013;-63
2022/11/18 18:14:50;;;;;;;3.35;1.23;;;;;;;;;;8354131;28;20884;-62
2022/11/18 18:18:51;;;;;;;2.33;1.17;;;;;;;;;;8349853;28;20067;-62
2022/11/18 18:22:52;;;;;;;2.40;1.15;;;;;;;;;;8351736;28;20267;-64
2022/11/18 18:26:52;;;;;;;4.32;1.98;;;;;;;;;;8348227;28;20103;-62
2022/11/18 18:30:58;;;;;;;4.38;1.17;;;;;;;;;;8351022;28;20835;-62
2022/11/18 18:34:59;;;;;;;4.53;1.40;;;;;;;;;;8350295;28;20056;-62
2022/11/18 18:39:01;;;;;;;2.90;1.60;;;;;;;;;;8350816;28;20500;-62
2022/11/18 18:43:01;;;;;;;2.40;1.30;;;;;;;;;;8351035;28;20028;-62
2022/11/18 18:47:01;;;;;;;2.33;1.00;;;;;;;;;;8348920;28;20028;-62
2022/11/18 18:51:04;;;;;;;1.27;0.80;;;;;;;;;;8349370;28;20020;-62
2022/11/18 18:55:05;;;;;;;1.20;1.00;;;;;;;;;;8351024;28;20383;-62
2022/11/18 18:59:06;;;;;;;1.35;0.80;;;;;;;;;;8350640;28;20028;-62
2022/11/18 19:03:06;;;;;;;1.15;0.77;;;;;;;;;;8349868;28;20040;-62
2022/11/18 19:07:06;;;;;;;2.88;1.30;;;;;;;;;;8350484;28;20496;-62
2022/11/18 19:11:06;;;;;;;4.25;0.93;;;;;;;;;;8346259;28;20028;-62
2022/11/18 19:15:07;;;;;;;1.50;0.68;;;;;;;;;;8349826;28;20793;-62
2022/11/18 19:19:08;;;;;;;2.47;0.90;;;;;;;;;;8330611;28;20031;-63
2022/11/18 19:23:09;;;;;;;1.92;0.88;;;;;;;;;;8349031;28;20121;-62
2022/11/18 19:27:09;;;;;;;3.65;1.13;;;;;;;;;;8322557;28;20091;-62
2022/11/18 19:31:09;;;;;;;0.90;0.90;;;;;;;;;;8349392;28;20040;-62
2022/11/18 19:35:10;;;;;;;1.17;0.80;;;;;;;;;;8350579;28;20449;-62
2022/11/18 19:39:10;;;;;;;1.70;0.90;;;;;;;;;;8350209;28;20032;-62
2022/11/18 19:43:10;;;;;;;0.83;0.70;;;;;;;;;;8352475;28;20765;-63
2022/11/18 19:47:10;;;;;;;0.70;0.70;;;;;;;;;;8351225;28;21007;-62
2022/11/18 19:51:11;;;;;;;0.73;0.73;;;;;;;;;;8355038;28;20035;-62
2022/11/18 19:55:12;;;;;;;0.90;0.75;;;;;;;;;;8352232;28;20058;-63
2022/11/18 19:59:12;;;;;;;1.45;0.60;;;;;;;;;;8353823;28;20131;-62
2022/11/18 20:03:12;;;;;;;0.93;0.80;;;;;;;;;;8351276;28;20048;-62
2022/11/18 20:07:12;;;;;;;1.80;0.70;;;;;;;;;;8352443;28;20029;-63
2022/11/18 20:11:14;;;;;;;0.80;0.60;;;;;;;;;;8352742;28;20279;-62
2022/11/18 20:15:14;;;;;;;0.70;0.70;;;;;;;;;;8353473;28;20030;-62
2022/11/18 20:19:16;;;;;;;0.60;0.60;;;;;;;;;;8348487;28;20847;-63
2022/11/18 20:23:16;;;;;;;1.27;0.60;;;;;;;;;;8352657;28;20020;-62
2022/11/18 20:27:17;;;;;;;1.25;0.50;;;;;;;;;;8355225;28;20025;-62
2022/11/18 20:31:19;;;;;;;2.42;0.77;;;;;;;;;;8335946;28;20830;-62
2022/11/18 20:35:19;;;;;;;1.60;1.50;;;;;;;;;;8351488;28;20021;-62
2022/11/18 20:39:19;;;;;;;4.45;1.20;;;;;;;;;;8350898;28;20025;-62
2022/11/18 20:43:19;;;;;;;1.50;0.85;;;;;;;;;;8348769;28;20016;-63
2022/11/18 20:47:20;;;;;;;1.15;0.82;;;;;;;;;;8348232;28;20554;-63
2022/11/18 20:51:24;;;;;;;3.38;1.70;;;;;;;;;;8351161;28;20441;-62
2022/11/18 20:55:24;;;;;;;6.25;2.88;;;;;;;;;;8349448;28;20656;-62
2022/11/18 20:59:25;;;;;;;2.10;1.10;;;;;;;;;;8349501;28;20457;-62
2022/11/18 21:03:25;;;;;;;1.88;0.90;;;;;;;;;;8350310;28;20033;-63
2022/11/18 21:07:25;;;;;;;1.05;0.90;;;;;;;;;;8355510;28;21011;-63
2022/11/18 21:11:26;;;;;;;1.33;1.00;;;;;;;;;;8358362;28;20024;-62
2022/11/18 21:15:26;;;;;;;1.70;0.90;;;;;;;;;;8358583;28;20029;-63
2022/11/18 21:19:26;;;;;;;2.95;1.85;;;;;;;;;;8354487;28;20102;-63
2022/11/18 21:23:27;;;;;;;1.25;0.90;;;;;;;;;;8357510;28;20111;-63
2022/11/18 21:27:27;;;;;;;0.70;0.70;;;;;;;;;;8357134;28;20024;-63
2022/11/18 21:31:28;;;;;;;0.70;0.70;;;;;;;;;;8358608;28;20040;-62
2022/11/18 21:35:30;;;;;;;0.98;0.75;;;;;;;;;;8357016;28;20111;-62
2022/11/18 21:39:30;;;;;;;1.25;0.90;;;;;;;;;;8359247;28;20028;-65
2022/11/18 21:43:31;;;;;;;2.63;1.58;;;;;;;;;;8337671;28;20510;-62
2022/11/18 21:47:31;;;;;;;1.60;1.07;;;;;;;;;;8356867;28;20516;-63
2022/11/18 21:51:32;;;;;;;2.83;1.15;;;;;;;;;;8358177;28;20029;-63
2022/11/18 21:55:32;;;;;;;5.10;1.63;;;;;;;;;;8359111;28;20452;-63
2022/11/18 21:59:32;;;;;;;2.13;1.45;;;;;;;;;;8357403;28;20111;-62
2022/11/18 22:03:40;;;;;;;2.57;1.83;;;;;;;;;;8358622;28;20052;-62
2022/11/18 22:07:40;;;;;;;2.28;1.90;;;;;;;;;;8352493;28;20276;-63
2022/11/18 22:11:40;;;;;;;4.38;2.15;;;;;;;;;;8359090;28;20806;-63
2022/11/18 22:15:40;;;;;;;5.80;2.20;;;;;;;;;;8359999;28;20032;-62
2022/11/18 22:19:41;;;;;;;2.72;2.00;;;;;;;;;;8355489;28;20034;-62
2022/11/18 22:23:41;;;;;;;5.10;2.20;;;;;;;;;;8360365;28;20028;-62
2022/11/18 22:27:41;;;;;;;5.05;2.63;;;;;;;;;;8360049;28;20032;-63
2022/11/18 22:31:42;;;;;;;4.43;2.20;;;;;;;;;;8357712;28;20033;-62
2022/11/18 22:35:42;;;;;;;4.55;1.85;;;;;;;;;;8353231;28;20032;-62
2022/11/18 22:39:42;;;;;;;4.97;2.00;;;;;;;;;;8358286;28;20895;-62
2022/11/18 22:43:42;;;;;;;6.00;2.47;;;;;;;;;;8358575;28;20742;-62
2022/11/18 22:47:45;;;;;;;6.85;2.45;;;;;;;;;;8355870;28;20290;-62
2022/11/18 22:51:46;;;;;;;3.83;2.42;;;;;;;;;;8356509;28;20108;-62
2022/11/18 22:55:46;;;;;;;8.95;2.72;;;;;;;;;;8358054;28;20050;-62
2022/11/18 22:59:46;;;;;;;6.93;2.58;;;;;;;;;;8361273;28;20024;-62
2022/11/18 23:03:46;;;;;;;7.60;2.60;;;;;;;;;;8348595;28;20579;-62
2022/11/18 23:07:47;;;;;;;5.28;2.42;;;;;;;;;;8348407;28;20013;-62
2022/11/18 23:16:06;;;;;;;4.82;2.50;;;;;;;;;;8349248;28;20043;-62
2022/11/18 23:20:06;;;;;;;5.67;2.30;;;;;;;;;;8356712;28;20028;-62
2022/11/18 23:24:10;;;;;;;5.13;2.30;;;;;;;;;;8343131;28;20259;-62
2022/11/18 23:28:10;;;;;;;4.18;2.08;;;;;;;;;;8348851;28;20033;-62
2022/11/18 23:32:11;;;;;;;6.45;2.53;;;;;;;;;;8352356;28;20035;-62
2022/11/18 23:36:12;;;;;;;3.30;2.00;;;;;;;;;;8353397;28;20028;-62
2022/11/18 23:40:13;;;;;;;5.05;2.33;;;;;;;;;;8351498;28;20477;-62
2022/11/18 23:44:13;;;;;;;8.00;2.50;;;;;;;;;;8356086;28;20020;-62
2022/11/18 23:48:13;;;;;;;7.32;2.00;;;;;;;;;;8356418;28;20038;-62
2022/11/18 23:52:13;;;;;;;4.93;2.22;;;;;;;;;;8357030;28;20016;-62
2022/11/18 23:56:14;;;;;;;6.20;2.03;;;;;;;;;;8360441;28;20067;-62
